Time;durP1;ratioP1;P1;durP2;ratioP2;P2;SDS_P1;SDS_P2;PMS_P1;PMS_P2;Temp;Humidity;BMP_temperature;BMP_pressure;BME280_temperature;BME280_humidity;BME280_pressure;Samples;Min_cycle;Max_cycle;Signal;HPM_P1;HPM_P2
2022/01/24 01:56:30;;;;;;;;;;;;;;;;;;7388291;19;2214;-44
2022/01/24 01:59:22;;;;;;;;;;;;;;;;;;7388187;19;2155;-45
2022/01/24 02:02:15;;;;;;;;;;;;;;;;;;7388351;19;2175;-42
2022/01/24 02:05:07;;;;;;;;;;;;;;;;;;7387568;19;1914;-49
2022/01/24 02:08:00;;;;;;;;;;;;;;;;;;7391727;19;2361;-42
2022/01/24 02:10:52;;;;;;;;;;;;;;;;;;7385834;19;1861;-43
2022/01/24 02:13:45;;;;;;;;;;;;;;;;;;7387315;19;2134;-42
2022/01/24 02:16:56;;;;;;;;;;;;;;;;;;7387349;19;1957;-49
2022/01/24 02:20:09;;;;;;;;;;;;;;;;;;7387187;19;2230;-48
2022/01/24 02:23:35;;;;;;;;;;;;;;;;;;7386276;19;2257;-44
2022/01/24 02:26:29;;;;;;;;;;;;;;;;;;7387234;19;2318;-42
2022/01/24 02:29:45;;;;;;;;;;;;;;;;;;7387160;19;2226;-43
2022/01/24 02:32:38;;;;;;;;;;;;;;;;;;7386756;19;2200;-42
2022/01/24 02:35:31;;;;;;;;;;;;;;;;;;7386502;19;2215;-47
2022/01/24 02:38:59;;;;;;;;;;;;;;;;;;7386630;19;2329;-45
2022/01/24 04:02:43;;;;;;;;;;;;;;;;;;7387148;19;1216;-45
2022/01/24 07:25:04;;;;;;;;;;;;;;;;;;7392045;19;1294;-44
2022/01/24 11:46:20;;;;;;;;;;;;;;;;;;7387636;19;1563;-51
2022/01/24 17:21:49;;;;;;;;;;;;;;;;;;7387978;19;1812;-42
2022/01/24 17:24:25;;;;;;;;;;;;;;;;;;7391820;19;2422;-44
2022/01/24 17:27:13;;;;;;;;;;;;;;;;;;7390773;19;2067;-50
2022/01/24 17:29:40;;;;;;;;;;;;;;;;;;7390417;19;2354;-48
2022/01/24 17:32:07;;;;;;;;;;;;;;;;;;7389001;19;1903;-46
2022/01/24 17:34:35;;;;;;;;;;;;;;;;;;7386395;19;2246;-43
2022/01/24 17:37:02;;;;;;;;;;;;;;;;;;7386534;19;2044;-42
2022/01/24 17:39:32;;;;;;;;;;;;;;;;;;7386936;19;2235;-43
2022/01/24 17:41:59;;;;;;;;;;;;;;;;;;7384443;19;2175;-42
2022/01/24 17:44:26;;;;;;;;;;;;;;;;;;7385214;19;2318;-49
2022/01/24 17:46:54;;;;;;;;;;;;;;;;;;7386564;19;2235;-52
2022/01/24 17:49:21;;;;;;;;;;;;;;;;;;7390476;19;1916;-48
2022/01/24 17:51:48;;;;;;;;;;;;;;;;;;7389186;19;2395;-46
2022/01/24 17:54:16;;;;;;;;;;;;;;;;;;7390283;19;2190;-41
2022/01/24 17:56:48;;;;;;;;;;;;;;;;;;7390152;19;1902;-50
2022/01/24 17:59:15;;;;;;;;;;;;;;;;;;7388244;19;1607;-46
2022/01/24 18:01:43;;;;;;;;;;;;;;;;;;7390359;19;2320;-47
2022/01/24 18:04:10;;;;;;;;;;;;;;;;;;7389953;19;2319;-44
2022/01/24 18:06:38;;;;;;;;;;;;;;;;;;7390396;19;2263;-47
2022/01/24 18:09:10;;;;;;;;;;;;;;;;;;7389542;19;1986;-45
2022/01/24 18:11:37;;;;;;;;;;;;;;;;;;7390472;19;2196;-43
2022/01/24 18:14:05;;;;;;;;;;;;;;;;;;7389859;19;2064;-46
2022/01/24 18:16:32;;;;;;;;;;;;;;;;;;7389708;19;1915;-42
2022/01/24 18:19:00;;;;;;;;;;;;;;;;;;7389474;19;2249;-49
2022/01/24 18:21:27;;;;;;;;;;;;;;;;;;7390083;19;2303;-42
2022/01/24 18:23:54;;;;;;;;;;;;;;;;;;7389328;19;2209;-42
2022/01/24 18:26:22;;;;;;;;;;;;;;;;;;7388804;19;2228;-42
2022/01/24 18:28:50;;;;;;;;;;;;;;;;;;7389584;19;2504;-50
2022/01/24 18:31:17;;;;;;;;;;;;;;;;;;7388282;19;1848;-46
2022/01/24 18:33:44;;;;;;;;;;;;;;;;;;7389923;19;2166;-43
2022/01/24 18:36:12;;;;;;;;;;;;;;;;;;7389163;19;2060;-44
2022/01/24 18:38:39;;;;;;;;;;;;;;;;;;7388780;19;2377;-45
2022/01/24 18:41:06;;;;;;;;;;;;;;;;;;7388654;19;2203;-42
2022/01/24 18:43:37;;;;;;;;;;;;;;;;;;7389408;19;2320;-44
2022/01/24 18:46:05;;;;;;;;;;;;;;;;;;7389243;19;1476;-41
2022/01/24 18:48:33;;;;;;;;;;;;;;;;;;7389714;19;2272;-46
2022/01/24 18:51:00;;;;;;;;;;;;;;;;;;7388861;19;1903;-45
2022/01/24 18:53:27;;;;;;;;;;;;;;;;;;7392393;19;1645;-44
2022/01/24 18:55:55;;;;;;;;;;;;;;;;;;7396185;19;1392;-43
2022/01/24 18:58:23;;;;;;;;;;;;;;;;;;7396483;19;2269;-42
2022/01/24 19:00:50;;;;;;;;;;;;;;;;;;7395605;19;2318;-45
2022/01/24 19:03:18;;;;;;;;;;;;;;;;;;7395858;19;2072;-44
2022/01/24 19:05:45;;;;;;;;;;;;;;;;;;7395489;19;1982;-48
2022/01/24 19:08:14;;;;;;;;;;;;;;;;;;7395901;19;2151;-43
2022/01/24 19:10:44;;;;;;;;;;;;;;;;;;7396256;19;2493;-49
2022/01/24 19:13:16;;;;;;;;;;;;;;;;;;7395674;19;2264;-45
2022/01/24 19:15:44;;;;;;;;;;;;;;;;;;7394983;19;2205;-50
2022/01/24 19:18:26;;;;;;;;;;;;;;;;;;7393621;19;2309;-43
2022/01/24 19:23:39;;;;;;;;;;;;;;;;;;7394768;19;2226;-46
2022/01/24 19:26:10;;;;;;;;;;;;;;;;;;7396229;19;2371;-44
2022/01/24 19:28:39;;;;;;;;;;;;;;;;;;7395321;19;2103;-48
2022/01/24 19:31:07;;;;;;;;;;;;;;;;;;7394770;19;2037;-45
2022/01/24 19:33:35;;;;;;;;;;;;;;;;;;7395407;19;2216;-50
2022/01/24 19:36:03;;;;;;;;;;;;;;;;;;7394770;19;2340;-47
2022/01/24 19:38:35;;;;;;;;;;;;;;;;;;7395128;19;2335;-44
2022/01/24 19:41:04;;;;;;;;;;;;;;;;;;7393330;19;2406;-47
2022/01/24 19:43:31;;;;;;;;;;;;;;;;;;7395115;19;2138;-46
2022/01/24 19:45:59;;;;;;;;;;;;;;;;;;7394833;19;2219;-43
2022/01/24 19:48:26;;;;;;;;;;;;;;;;;;7394245;19;1768;-45
2022/01/24 19:50:59;;;;;;;;;;;;;;;;;;7394145;19;2074;-44
2022/01/24 19:53:27;;;;;;;;;;;;;;;;;;7394588;19;2599;-44
2022/01/24 19:58:44;;;;;;;;;;;;;;;;;;7394008;19;2214;-48
2022/01/24 20:01:11;;;;;;;;;;;;;;;;;;7394610;19;2096;-43
2022/01/24 20:03:40;;;;;;;;;;;;;;;;;;7393936;19;2382;-44
2022/01/24 20:06:08;;;;;;;;;;;;;;;;;;7392910;19;2308;-43
2022/01/24 20:08:36;;;;;;;;;;;;;;;;;;7394396;19;2481;-41
2022/01/24 20:11:04;;;;;;;;;;;;;;;;;;7395169;19;2235;-43
2022/01/24 20:13:31;;;;;;;;;;;;;;;;;;7393816;19;2216;-43
2022/01/24 20:15:58;;;;;;;;;;;;;;;;;;7393080;19;2207;-42
2022/01/24 20:18:25;;;;;;;;;;;;;;;;;;7390298;19;2013;-43
2022/01/24 20:20:53;;;;;;;;;;;;;;;;;;7393335;19;2113;-42
2022/01/24 20:23:21;;;;;;;;;;;;;;;;;;7393364;19;2218;-47
2022/01/24 20:25:48;;;;;;;;;;;;;;;;;;7392960;19;2423;-43
2022/01/24 20:28:16;;;;;;;;;;;;;;;;;;7392949;19;2172;-43
2022/01/24 20:30:43;;;;;;;;;;;;;;;;;;7393375;19;2110;-44
2022/01/24 20:33:10;;;;;;;;;;;;;;;;;;7390592;19;2264;-43
2022/01/24 20:35:37;;;;;;;;;;;;;;;;;;7392928;19;2080;-46
2022/01/24 20:38:05;;;;;;;;;;;;;;;;;;7393184;19;2106;-43
2022/01/24 20:40:32;;;;;;;;;;;;;;;;;;7392239;19;1816;-42
2022/01/24 20:43:03;;;;;;;;;;;;;;;;;;7392087;19;2288;-44
2022/01/24 20:45:32;;;;;;;;;;;;;;;;;;7392808;19;2244;-43
2022/01/24 20:48:00;;;;;;;;;;;;;;;;;;7392549;19;1620;-43
2022/01/24 20:50:32;;;;;;;;;;;;;;;;;;7392183;19;2312;-43
2022/01/24 20:52:59;;;;;;;;;;;;;;;;;;7391161;19;2243;-44
2022/01/24 20:55:27;;;;;;;;;;;;;;;;;;7392594;19;2004;-46
2022/01/24 20:57:54;;;;;;;;;;;;;;;;;;7392156;19;1876;-45
2022/01/24 21:00:23;;;;;;;;;;;;;;;;;;7391668;19;2295;-42
2022/01/24 21:02:50;;;;;;;;;;;;;;;;;;7391687;19;2004;-43
2022/01/24 21:05:17;;;;;;;;;;;;;;;;;;7392100;19;2380;-44
2022/01/24 21:07:45;;;;;;;;;;;;;;;;;;7392166;19;2318;-45
2022/01/24 21:10:17;;;;;;;;;;;;;;;;;;7389885;19;2309;-44
2022/01/24 21:13:29;;;;;;;;;;;;;;;;;;7390617;19;2224;-42
2022/01/24 21:15:38;;;;;;;;;;;;;;;;;;7391404;19;2282;-43
2022/01/24 21:18:05;;;;;;;;;;;;;;;;;;7389763;19;2256;-43
2022/01/24 21:20:33;;;;;;;;;;;;;;;;;;7391459;19;2300;-43
2022/01/24 21:23:00;;;;;;;;;;;;;;;;;;7391202;19;2533;-43
2022/01/24 21:25:28;;;;;;;;;;;;;;;;;;7391068;19;2306;-46
2022/01/24 21:27:55;;;;;;;;;;;;;;;;;;7391317;19;1767;-43
2022/01/24 21:30:22;;;;;;;;;;;;;;;;;;7391386;19;2135;-43
2022/01/24 21:32:54;;;;;;;;;;;;;;;;;;7388669;19;1993;-45
2022/01/24 21:35:31;;;;;;;;;;;;;;;;;;7390883;19;2199;-43
2022/01/24 21:37:59;;;;;;;;;;;;;;;;;;7390521;19;2060;-44
2022/01/24 21:40:27;;;;;;;;;;;;;;;;;;7389261;19;2016;-42
2022/01/24 21:42:55;;;;;;;;;;;;;;;;;;7390486;19;2287;-47
2022/01/24 21:45:24;;;;;;;;;;;;;;;;;;7389991;19;2458;-43
2022/01/24 21:47:52;;;;;;;;;;;;;;;;;;7390395;19;2235;-43
2022/01/24 21:50:20;;;;;;;;;;;;;;;;;;7389513;19;2294;-44
2022/01/24 21:52:48;;;;;;;;;;;;;;;;;;7389805;19;2420;-43
2022/01/24 21:55:22;;;;;;;;;;;;;;;;;;7390090;19;2321;-43
2022/01/24 21:57:50;;;;;;;;;;;;;;;;;;7390267;19;2222;-46
2022/01/24 22:00:18;;;;;;;;;;;;;;;;;;7390181;19;2250;-43
2022/01/24 22:02:50;;;;;;;;;;;;;;;;;;7389849;19;2279;-43
2022/01/24 22:05:17;;;;;;;;;;;;;;;;;;7389831;19;2212;-45
2022/01/24 22:10:17;;;;;;;;;;;;;;;;;;7390235;19;2305;-43
2022/01/24 22:12:45;;;;;;;;;;;;;;;;;;7388515;19;2122;-43
2022/01/24 22:15:14;;;;;;;;;;;;;;;;;;7390289;19;2353;-45
2022/01/24 22:17:42;;;;;;;;;;;;;;;;;;7387351;19;1424;-44
2022/01/24 22:20:10;;;;;;;;;;;;;;;;;;7389137;19;2263;-44
2022/01/24 22:25:25;;;;;;;;;;;;;;;;;;7389891;19;2252;-45
2022/01/24 22:27:52;;;;;;;;;;;;;;;;;;7387578;19;1544;-44
2022/01/24 22:30:20;;;;;;;;;;;;;;;;;;7389030;19;2764;-43
2022/01/24 22:32:47;;;;;;;;;;;;;;;;;;7388839;19;2363;-46
2022/01/24 22:35:14;;;;;;;;;;;;;;;;;;7388516;19;1931;-49
2022/01/24 22:37:41;;;;;;;;;;;;;;;;;;7389462;19;2230;-43
2022/01/24 22:40:10;;;;;;;;;;;;;;;;;;7389864;19;1976;-43
2022/01/24 22:42:40;;;;;;;;;;;;;;;;;;7389477;19;2147;-43
2022/01/24 22:45:09;;;;;;;;;;;;;;;;;;7389708;19;2189;-46
2022/01/24 22:47:37;;;;;;;;;;;;;;;;;;7389164;19;2239;-46
2022/01/24 22:50:05;;;;;;;;;;;;;;;;;;7388655;19;2322;-44
2022/01/24 22:52:32;;;;;;;;;;;;;;;;;;7387932;19;2221;-44
2022/01/24 22:54:59;;;;;;;;;;;;;;;;;;7388304;19;2170;-43
2022/01/24 22:57:27;;;;;;;;;;;;;;;;;;7388937;19;1979;-42
2022/01/24 22:59:54;;;;;;;;;;;;;;;;;;7388619;19;2141;-46
2022/01/24 23:02:22;;;;;;;;;;;;;;;;;;7388498;19;2205;-44
2022/01/24 23:04:49;;;;;;;;;;;;;;;;;;7389281;19;1848;-46
2022/01/24 23:07:17;;;;;;;;;;;;;;;;;;7388708;19;2188;-43
2022/01/24 23:09:46;;;;;;;;;;;;;;;;;;7388452;19;1589;-43
2022/01/24 23:12:15;;;;;;;;;;;;;;;;;;7391699;19;1967;-46
2022/01/24 23:17:42;;;;;;;;;;;;;;;;;;7386467;19;2571;-45
2022/01/24 23:20:10;;;;;;;;;;;;;;;;;;7387986;19;2357;-43
2022/01/24 23:22:40;;;;;;;;;;;;;;;;;;7388398;19;2270;-41
2022/01/24 23:25:09;;;;;;;;;;;;;;;;;;7388390;19;2292;-43
2022/01/24 23:27:43;;;;;;;;;;;;;;;;;;7387777;19;2264;-45
2022/01/24 23:30:16;;;;;;;;;;;;;;;;;;7388401;19;1860;-48
2022/01/24 23:33:07;;;;;;;;;;;;;;;;;;7386721;19;2242;-44
2022/01/24 23:43:42;;;;;;;;;;;;;;;;;;7394676;19;2211;-46
2022/01/24 23:46:10;;;;;;;;;;;;;;;;;;7395004;19;2297;-46
2022/01/24 23:48:37;;;;;;;;;;;;;;;;;;7393453;19;2046;-46
2022/01/24 23:51:04;;;;;;;;;;;;;;;;;;7394625;19;2148;-46
2022/01/24 23:53:34;;;;;;;;;;;;;;;;;;7392178;19;2171;-47
2022/01/24 23:56:01;;;;;;;;;;;;;;;;;;7394186;19;2297;-45
